N124TL KLXV-KLXV
Flight info
| Callsign | N124TL |
|---|---|
| Flight time | N/A |
| Altitude | 12000 |
| Route | KASE KGWS KEGE |
| Aircraft | BE58/L-VGD/C |
Departure
| Time | 2026-04-22 00:10 |
|---|---|
| Airport | Lake County Airport (KLXV) |
Arrival
| Time | N/A |
|---|---|
| Airport | Lake County Airport (KLXV) |
| Time | Latitude | Longitude | Altitude | Speed | Heading |
|---|---|---|---|---|---|
| 2026-04-21 23:57 | 39.22489 | -106.31655 | 9971 ft | 0 kts | 269° |
| 2026-04-21 23:57 | 39.22489 | -106.31664 | 9971 ft | 5 kts | 270° |
| 2026-04-21 23:57 | 39.22456 | -106.31749 | 9970 ft | 17 kts | 184° |
| 2026-04-21 23:58 | 39.22272 | -106.31715 | 9971 ft | 29 kts | 171° |
| 2026-04-21 23:58 | 39.22079 | -106.31673 | 9972 ft | 31 kts | 170° |
| 2026-04-21 23:58 | 39.21845 | -106.31623 | 9971 ft | 33 kts | 170° |
| 2026-04-21 23:58 | 39.21631 | -106.31574 | 9968 ft | 33 kts | 170° |
| 2026-04-21 23:59 | 39.21397 | -106.31519 | 9965 ft | 32 kts | 172° |
| 2026-04-21 23:59 | 39.21211 | -106.31480 | 9961 ft | 16 kts | 173° |
| 2026-04-21 23:59 | 39.21173 | -106.31393 | 9960 ft | 10 kts | 81° |
| 2026-04-21 23:59 | 39.21129 | -106.31357 | 9959 ft | 8 kts | 173° |
| 2026-04-22 00:00 | 39.21102 | -106.31364 | 9958 ft | 0 kts | 229° |
| 2026-04-22 00:05 | 39.21095 | -106.31383 | 9958 ft | 0 kts | 259° |
| 2026-04-22 00:09 | 39.21095 | -106.31444 | 9956 ft | 12 kts | 301° |
| 2026-04-22 00:09 | 39.21180 | -106.31477 | 9958 ft | 37 kts | 351° |
| 2026-04-22 00:09 | 39.21636 | -106.31581 | 9968 ft | 89 kts | 349° |
| 2026-04-22 00:10 | 39.22275 | -106.31664 | 10077 ft | 94 kts | 348° |
| 2026-04-22 00:10 | 39.22940 | -106.31796 | 10224 ft | 100 kts | 341° |
| 2026-04-22 00:10 | 39.23601 | -106.32053 | 10427 ft | 99 kts | 335° |
| 2026-04-22 00:10 | 39.24231 | -106.32398 | 10644 ft | 92 kts | 311° |
| 2026-04-22 00:11 | 39.24372 | -106.33112 | 10698 ft | 95 kts | 246° |
| 2026-04-22 00:11 | 39.24077 | -106.33899 | 10852 ft | 100 kts | 228° |
| 2026-04-22 00:11 | 39.23394 | -106.34164 | 10974 ft | 110 kts | 174° |
| 2026-04-22 00:11 | 39.22614 | -106.33902 | 11059 ft | 124 kts | 170° |
| 2026-04-22 00:12 | 39.21677 | -106.33606 | 10929 ft | 147 kts | 174° |
| 2026-04-22 00:12 | 39.20622 | -106.33308 | 10845 ft | 161 kts | 173° |
| 2026-04-22 00:12 | 39.19524 | -106.32984 | 10924 ft | 163 kts | 171° |
| 2026-04-22 00:12 | 39.18401 | -106.32735 | 11004 ft | 164 kts | 175° |
| 2026-04-22 00:13 | 39.17283 | -106.32437 | 11145 ft | 161 kts | 173° |
| 2026-04-22 00:13 | 39.16185 | -106.32153 | 11269 ft | 159 kts | 173° |
| 2026-04-22 00:13 | 39.15099 | -106.31881 | 11384 ft | 157 kts | 174° |
| 2026-04-22 00:13 | 39.14043 | -106.31610 | 11567 ft | 151 kts | 171° |
| 2026-04-22 00:14 | 39.13029 | -106.31360 | 11804 ft | 143 kts | 173° |
| 2026-04-22 00:14 | 39.12085 | -106.31122 | 12013 ft | 136 kts | 171° |
| 2026-04-22 00:14 | 39.11222 | -106.30637 | 12207 ft | 133 kts | 154° |
| 2026-04-22 00:14 | 39.10400 | -106.30153 | 12386 ft | 125 kts | 176° |
| 2026-04-22 00:15 | 39.09597 | -106.30429 | 12550 ft | 118 kts | 216° |
| 2026-04-22 00:15 | 39.09074 | -106.31224 | 12719 ft | 117 kts | 239° |
| 2026-04-22 00:15 | 39.08682 | -106.32144 | 12893 ft | 117 kts | 241° |
| 2026-04-22 00:15 | 39.08300 | -106.33063 | 13062 ft | 117 kts | 241° |
| 2026-04-22 00:16 | 39.07920 | -106.33993 | 13172 ft | 123 kts | 240° |
| 2026-04-22 00:16 | 39.07500 | -106.35028 | 13146 ft | 135 kts | 241° |
| 2026-04-22 00:16 | 39.07174 | -106.36197 | 13146 ft | 145 kts | 264° |
| 2026-04-22 00:16 | 39.07085 | -106.37525 | 13142 ft | 153 kts | 263° |
| 2026-04-22 00:17 | 39.06965 | -106.38932 | 13141 ft | 160 kts | 262° |
| 2026-04-22 00:17 | 39.06837 | -106.40369 | 13137 ft | 165 kts | 263° |
| 2026-04-22 00:17 | 39.06810 | -106.41880 | 13146 ft | 170 kts | 269° |
| 2026-04-22 00:17 | 39.06813 | -106.43413 | 13142 ft | 173 kts | 269° |
| 2026-04-22 00:18 | 39.06820 | -106.44975 | 13146 ft | 175 kts | 269° |
| 2026-04-22 00:18 | 39.06829 | -106.46542 | 13144 ft | 176 kts | 270° |
| 2026-04-22 00:18 | 39.06860 | -106.48141 | 13143 ft | 177 kts | 271° |
| 2026-04-22 00:18 | 39.06926 | -106.49725 | 13131 ft | 179 kts | 277° |
| 2026-04-22 00:19 | 39.07344 | -106.51234 | 13141 ft | 181 kts | 298° |
| 2026-04-22 00:19 | 39.08019 | -106.52615 | 13141 ft | 182 kts | 301° |
| 2026-04-22 00:19 | 39.08708 | -106.53995 | 13115 ft | 183 kts | 301° |
| 2026-04-22 00:19 | 39.09396 | -106.55368 | 13085 ft | 183 kts | 302° |
| 2026-04-22 00:20 | 39.10089 | -106.56741 | 13095 ft | 181 kts | 301° |
| 2026-04-22 00:20 | 39.10783 | -106.58111 | 13103 ft | 181 kts | 302° |
| 2026-04-22 00:20 | 39.11463 | -106.59476 | 13100 ft | 181 kts | 295° |
| 2026-04-22 00:20 | 39.11851 | -106.61009 | 13099 ft | 180 kts | 282° |
| 2026-04-22 00:21 | 39.12152 | -106.62588 | 13081 ft | 181 kts | 282° |
| 2026-04-22 00:21 | 39.12313 | -106.64178 | 13073 ft | 178 kts | 263° |
| 2026-04-22 00:21 | 39.12201 | -106.65774 | 13070 ft | 178 kts | 269° |
| 2026-04-22 00:21 | 39.12238 | -106.67368 | 13082 ft | 178 kts | 271° |
| 2026-04-22 00:22 | 39.12278 | -106.68968 | 13093 ft | 178 kts | 270° |
| 2026-04-22 00:22 | 39.12326 | -106.70544 | 13100 ft | 178 kts | 272° |
| 2026-04-22 00:22 | 39.12412 | -106.72141 | 13087 ft | 179 kts | 275° |
| 2026-04-22 00:22 | 39.12825 | -106.73689 | 12825 ft | 190 kts | 296° |
| 2026-04-22 00:23 | 39.13550 | -106.75198 | 12423 ft | 199 kts | 302° |
| 2026-04-22 00:23 | 39.14455 | -106.76573 | 11984 ft | 209 kts | 315° |
| 2026-04-22 00:23 | 39.15572 | -106.77751 | 11334 ft | 207 kts | 321° |
| 2026-04-22 00:23 | 39.16730 | -106.78805 | 10659 ft | 204 kts | 320° |
| 2026-04-22 00:24 | 39.17859 | -106.79886 | 10116 ft | 200 kts | 319° |
| 2026-04-22 00:24 | 39.18911 | -106.80993 | 9691 ft | 188 kts | 318° |
| 2026-04-22 00:24 | 39.19799 | -106.82120 | 9404 ft | 168 kts | 311° |
| 2026-04-22 00:24 | 39.20670 | -106.83027 | 9202 ft | 154 kts | 317° |
| 2026-04-22 00:25 | 39.21500 | -106.83843 | 9036 ft | 147 kts | 319° |
| 2026-04-22 00:25 | 39.22301 | -106.84529 | 9038 ft | 128 kts | 321° |
| 2026-04-22 00:25 | 39.23032 | -106.84999 | 8941 ft | 108 kts | 333° |
| 2026-04-22 00:25 | 39.23745 | -106.85355 | 8848 ft | 107 kts | 326° |
| 2026-04-22 00:26 | 39.24368 | -106.85808 | 8675 ft | 99 kts | 316° |
| 2026-04-22 00:26 | 39.24746 | -106.86478 | 8422 ft | 88 kts | 265° |
| 2026-04-22 00:26 | 39.24596 | -106.87229 | 8159 ft | 90 kts | 230° |
| 2026-04-22 00:26 | 39.24047 | -106.87641 | 8033 ft | 98 kts | 182° |
| 2026-04-22 00:27 | 39.23349 | -106.87367 | 7808 ft | 108 kts | 163° |
| 2026-04-22 00:27 | 39.22680 | -106.87045 | 7769 ft | 90 kts | 161° |
| 2026-04-22 00:27 | 39.22161 | -106.86812 | 7800 ft | 65 kts | 160° |
| 2026-04-22 00:27 | 39.22024 | -106.86684 | 7814 ft | 14 kts | 73° |
| 2026-04-22 00:28 | 39.22033 | -106.86650 | 7815 ft | 0 kts | 85° |
| 2026-04-22 00:28 | 39.21985 | -106.86603 | 7820 ft | 11 kts | 157° |
| 2026-04-22 00:28 | 39.21918 | -106.86575 | 7825 ft | 15 kts | 155° |
| 2026-04-22 00:28 | 39.21734 | -106.86484 | 7838 ft | 36 kts | 160° |
| 2026-04-22 00:29 | 39.21507 | -106.86375 | 7854 ft | 27 kts | 160° |
| 2026-04-22 00:29 | 39.21326 | -106.86290 | 7864 ft | 28 kts | 160° |
| 2026-04-22 00:29 | 39.21222 | -106.86245 | 7870 ft | 0 kts | 178° |
| 2026-04-22 00:31 | 39.21217 | -106.86245 | 7870 ft | 5 kts | 185° |
| 2026-04-22 00:32 | 39.21209 | -106.86356 | 7865 ft | 15 kts | 326° |
| 2026-04-22 00:32 | 39.21309 | -106.86408 | 7859 ft | 48 kts | 340° |
| 2026-04-22 00:32 | 39.21850 | -106.86657 | 7857 ft | 101 kts | 339° |
| 2026-04-22 00:32 | 39.22573 | -106.86955 | 8055 ft | 116 kts | 337° |
| 2026-04-22 00:33 | 39.23362 | -106.87256 | 8357 ft | 120 kts | 338° |
| 2026-04-22 00:33 | 39.24163 | -106.87554 | 8666 ft | 120 kts | 338° |
| 2026-04-22 00:33 | 39.24959 | -106.87859 | 8987 ft | 119 kts | 338° |
| 2026-04-22 00:33 | 39.25757 | -106.88156 | 9305 ft | 118 kts | 339° |
| 2026-04-22 00:34 | 39.26545 | -106.88444 | 9604 ft | 117 kts | 339° |
| 2026-04-22 00:34 | 39.27288 | -106.88800 | 9870 ft | 113 kts | 322° |
| 2026-04-22 00:34 | 39.27913 | -106.89403 | 10125 ft | 110 kts | 313° |
| 2026-04-22 00:34 | 39.28374 | -106.90171 | 10362 ft | 108 kts | 298° |
| 2026-04-22 00:35 | 39.28798 | -106.90962 | 10597 ft | 108 kts | 304° |
| 2026-04-22 00:35 | 39.29269 | -106.91717 | 10829 ft | 109 kts | 305° |
| 2026-04-22 00:35 | 39.29749 | -106.92477 | 11057 ft | 109 kts | 305° |
| 2026-04-22 00:35 | 39.30232 | -106.93237 | 11276 ft | 110 kts | 305° |
| 2026-04-22 00:36 | 39.30799 | -106.94078 | 11221 ft | 135 kts | 310° |
| 2026-04-22 00:36 | 39.31480 | -106.94990 | 11214 ft | 148 kts | 311° |